createdAt,value
2019-06-26T00:00:15.135Z,0.00
2019-06-26T00:01:15.125Z,0.00
2019-06-26T00:02:15.110Z,0.00
2019-06-26T00:03:15.119Z,0.00
2019-06-26T00:04:15.069Z,0.00
2019-06-26T00:05:15.069Z,0.00
2019-06-26T00:06:15.035Z,0.00
2019-06-26T00:07:15.024Z,0.00
2019-06-26T00:08:15.030Z,0.00
2019-06-26T00:09:14.981Z,0.00
2019-06-26T00:10:14.972Z,0.00
2019-06-26T00:11:14.956Z,0.00
2019-06-26T00:12:14.937Z,0.00
2019-06-26T00:13:25.819Z,0.00
2019-06-26T00:14:14.898Z,0.00
2019-06-26T00:15:14.887Z,0.00
2019-06-26T00:16:14.872Z,0.00
2019-06-26T00:17:14.849Z,0.00
2019-06-26T00:18:14.860Z,0.00
2019-06-26T00:19:14.813Z,0.00
2019-06-26T00:20:14.794Z,0.00
2019-06-26T00:21:14.781Z,0.00
2019-06-26T00:22:14.761Z,0.00
2019-06-26T00:23:14.747Z,0.00
2019-06-26T00:24:14.730Z,0.00
2019-06-26T00:25:14.716Z,0.00
2019-06-26T00:26:14.691Z,0.00
2019-06-26T00:27:14.674Z,0.00
2019-06-26T00:28:14.658Z,0.00
2019-06-26T00:29:14.649Z,0.00
2019-06-26T00:30:14.628Z,0.00
2019-06-26T00:31:14.602Z,0.00
2019-06-26T00:32:14.588Z,0.00
2019-06-26T00:33:14.572Z,0.00
2019-06-26T00:34:14.559Z,0.00
2019-06-26T00:35:14.538Z,0.00
2019-06-26T00:36:14.521Z,0.00
2019-06-26T00:37:14.502Z,0.00
2019-06-26T00:38:14.484Z,0.00
2019-06-26T00:39:14.469Z,0.00
2019-06-26T00:40:14.450Z,0.00
2019-06-26T00:41:14.429Z,0.00
2019-06-26T00:42:14.419Z,0.00
2019-06-26T00:43:14.406Z,0.00
2019-06-26T00:44:14.382Z,0.00
2019-06-26T00:45:14.361Z,0.00
2019-06-26T00:46:14.353Z,0.00
2019-06-26T00:47:14.332Z,0.00
2019-06-26T00:48:14.313Z,0.00
2019-06-26T00:49:14.296Z,0.00
2019-06-26T00:50:14.283Z,0.00
2019-06-26T00:51:14.270Z,0.00
2019-06-26T00:52:14.252Z,0.00
2019-06-26T00:53:14.227Z,0.00
2019-06-26T00:54:14.209Z,0.00
2019-06-26T00:55:14.192Z,0.00
2019-06-26T00:56:14.196Z,0.00
2019-06-26T00:57:14.157Z,0.00
2019-06-26T00:58:14.139Z,0.00
2019-06-26T00:59:14.124Z,0.00
2019-06-26T01:00:14.110Z,0.00
2019-06-26T01:01:14.093Z,0.00
2019-06-26T01:02:14.077Z,0.00
2019-06-26T01:03:14.053Z,0.00
2019-06-26T01:04:14.031Z,0.00
2019-06-26T01:05:14.020Z,0.00
2019-06-26T01:06:14.001Z,0.00
2019-06-26T01:07:13.980Z,0.00
2019-06-26T01:08:13.966Z,0.00
2019-06-26T01:09:14.035Z,0.00
2019-06-26T01:10:13.931Z,0.00
2019-06-26T01:11:13.913Z,0.00
2019-06-26T01:12:13.899Z,0.00
2019-06-26T01:13:13.877Z,0.00
2019-06-26T01:14:13.861Z,0.00
2019-06-26T01:15:13.848Z,0.00
2019-06-26T01:16:13.838Z,0.00
2019-06-26T01:17:13.811Z,0.00
2019-06-26T01:18:13.796Z,0.00
2019-06-26T01:19:13.774Z,0.00
2019-06-26T01:20:13.756Z,0.00
2019-06-26T01:21:13.739Z,0.00
2019-06-26T01:22:13.722Z,0.00
2019-06-26T01:23:13.702Z,0.00
2019-06-26T01:24:13.684Z,0.00
2019-06-26T01:25:13.667Z,0.00
2019-06-26T01:26:13.712Z,0.00
2019-06-26T01:27:13.633Z,0.00
2019-06-26T01:28:13.623Z,0.00
2019-06-26T01:29:13.593Z,0.00
2019-06-26T01:30:13.582Z,0.00
2019-06-26T01:31:13.567Z,0.00
2019-06-26T01:32:13.547Z,0.00
2019-06-26T01:33:13.540Z,0.00
2019-06-26T01:34:13.511Z,0.00
2019-06-26T01:35:13.491Z,0.00
2019-06-26T01:36:13.475Z,0.00
2019-06-26T01:37:13.452Z,0.00
2019-06-26T01:38:13.441Z,0.00
2019-06-26T01:39:13.423Z,0.00
2019-06-26T01:40:13.406Z,0.00
2019-06-26T01:41:13.389Z,0.00
2019-06-26T01:42:13.369Z,0.00
2019-06-26T01:43:13.351Z,0.00
2019-06-26T01:44:15.274Z,0.00
2019-06-26T01:45:13.317Z,0.00
2019-06-26T01:46:13.299Z,0.00
2019-06-26T01:47:13.283Z,0.00
2019-06-26T01:48:13.262Z,0.00
2019-06-26T01:49:13.245Z,0.00
2019-06-26T01:50:13.233Z,0.00
2019-06-26T01:51:13.221Z,0.00
2019-06-26T01:52:13.204Z,0.00
2019-06-26T01:53:13.178Z,0.00
2019-06-26T01:54:13.159Z,0.00
2019-06-26T01:55:13.163Z,0.00
2019-06-26T01:56:13.120Z,0.00
2019-06-26T01:57:13.105Z,0.00
2019-06-26T01:58:13.090Z,0.00
2019-06-26T01:59:13.074Z,0.00
2019-06-26T02:00:13.059Z,0.00
2019-06-26T02:01:13.034Z,0.00
2019-06-26T02:02:13.022Z,0.00
2019-06-26T02:03:13.006Z,0.00
2019-06-26T02:04:15.597Z,0.00
2019-06-26T02:05:12.960Z,0.00
2019-06-26T02:06:12.948Z,0.00
2019-06-26T02:07:12.934Z,0.00
2019-06-26T02:08:12.909Z,0.00
2019-06-26T02:09:12.897Z,0.00
2019-06-26T02:10:12.879Z,0.00
2019-06-26T02:11:12.865Z,0.00
2019-06-26T02:12:12.846Z,0.00
2019-06-26T02:13:12.821Z,0.00
2019-06-26T02:14:12.804Z,0.00
2019-06-26T02:15:12.790Z,0.00
2019-06-26T02:16:12.773Z,0.00
2019-06-26T02:17:12.745Z,0.00
2019-06-26T02:18:12.739Z,0.00
2019-06-26T02:19:12.717Z,0.00
2019-06-26T02:20:12.704Z,0.00
2019-06-26T02:21:12.684Z,0.00
2019-06-26T02:22:12.664Z,0.00
2019-06-26T02:23:12.648Z,0.00
2019-06-26T02:24:12.633Z,0.00
2019-06-26T02:25:12.616Z,0.00
2019-06-26T02:26:12.598Z,0.00
2019-06-26T02:27:12.583Z,4.00
2019-06-26T02:28:12.562Z,4.00
2019-06-26T02:29:12.546Z,4.00
2019-06-26T02:30:12.558Z,4.00
2019-06-26T02:31:12.518Z,4.00
2019-06-26T02:32:12.488Z,4.00
2019-06-26T02:33:12.472Z,4.00
2019-06-26T02:34:12.454Z,8.00
2019-06-26T02:35:12.437Z,8.00
2019-06-26T02:36:12.418Z,8.00
2019-06-26T02:37:12.402Z,8.00
2019-06-26T02:38:12.382Z,12.00
2019-06-26T02:39:12.365Z,12.00
2019-06-26T02:40:12.354Z,12.00
2019-06-26T02:41:12.334Z,16.00
2019-06-26T02:42:12.325Z,20.00
2019-06-26T02:43:12.290Z,20.00
2019-06-26T02:44:12.280Z,24.00
2019-06-26T02:45:12.288Z,24.00
2019-06-26T02:46:12.243Z,28.00
2019-06-26T02:47:19.426Z,36.00
2019-06-26T02:48:12.736Z,36.00
2019-06-26T02:49:12.193Z,44.00
2019-06-26T02:50:12.169Z,48.00
2019-06-26T02:51:12.159Z,56.00
2019-06-26T02:52:12.134Z,60.00
2019-06-26T02:53:12.112Z,72.00
2019-06-26T02:54:12.103Z,80.00
2019-06-26T02:55:12.099Z,88.00
2019-06-26T02:56:12.064Z,100.00
2019-06-26T02:57:12.048Z,108.00
2019-06-26T02:58:12.029Z,120.00
2019-06-26T02:59:12.001Z,136.00
2019-06-26T03:00:11.990Z,148.00
2019-06-26T03:01:11.973Z,160.00
2019-06-26T03:02:11.959Z,176.00
2019-06-26T03:03:11.953Z,196.00
2019-06-26T03:04:11.939Z,212.00
2019-06-26T03:05:11.905Z,232.00
2019-06-26T03:06:11.884Z,252.00
2019-06-26T03:07:12.739Z,276.00
2019-06-26T03:08:11.932Z,300.00
2019-06-26T03:09:11.830Z,328.00
2019-06-26T03:10:11.820Z,356.00
2019-06-26T03:11:11.811Z,388.00
2019-06-26T03:12:11.776Z,420.00
2019-06-26T03:13:11.759Z,456.00
2019-06-26T03:14:11.746Z,488.00
2019-06-26T03:15:11.725Z,524.00
2019-06-26T03:16:11.712Z,560.00
2019-06-26T03:17:11.692Z,596.00
2019-06-26T03:18:11.678Z,632.00
2019-06-26T03:19:11.673Z,664.00
2019-06-26T03:20:11.634Z,704.00
2019-06-26T03:21:11.618Z,740.00
2019-06-26T03:22:11.607Z,780.00
2019-06-26T03:23:11.582Z,824.00
2019-06-26T03:24:11.567Z,868.00
2019-06-26T03:25:11.542Z,912.00
2019-06-26T03:26:11.527Z,964.00
2019-06-26T03:27:11.513Z,1016.00
2019-06-26T03:28:11.493Z,1076.00
2019-06-26T03:29:11.501Z,1140.00
2019-06-26T03:30:11.457Z,1200.00
2019-06-26T03:31:11.439Z,1268.00
2019-06-26T03:32:11.423Z,1332.00
2019-06-26T03:33:11.399Z,1392.00
2019-06-26T03:34:11.397Z,1456.00
2019-06-26T03:35:11.422Z,1532.00
2019-06-26T03:36:11.394Z,1600.00
2019-06-26T03:37:11.331Z,1676.00
2019-06-26T03:38:11.310Z,1752.00
2019-06-26T03:39:11.297Z,1828.00
2019-06-26T03:40:11.275Z,1900.00
2019-06-26T03:41:11.256Z,1972.00
2019-06-26T03:42:11.354Z,2044.00
2019-06-26T03:43:11.229Z,2112.00
2019-06-26T03:44:11.211Z,2188.00
2019-06-26T03:45:24.562Z,2272.00
2019-06-26T03:46:11.174Z,2352.00
2019-06-26T03:47:11.155Z,2428.00
2019-06-26T03:48:11.138Z,2508.00
2019-06-26T03:49:11.147Z,2584.00
2019-06-26T03:50:11.104Z,2660.00
2019-06-26T03:51:13.927Z,2740.00
2019-06-26T03:52:11.066Z,2820.00
2019-06-26T03:53:11.046Z,2892.00
2019-06-26T03:54:11.031Z,2976.00
2019-06-26T03:55:11.015Z,3052.00
2019-06-26T03:56:10.996Z,3136.00
2019-06-26T03:57:10.982Z,3220.00
2019-06-26T03:58:10.962Z,3304.00
2019-06-26T03:59:10.942Z,3384.00
2019-06-26T04:00:10.924Z,3464.00
2019-06-26T04:01:10.905Z,3548.00
2019-06-26T04:02:10.889Z,3636.00
2019-06-26T04:03:10.871Z,3720.00
2019-06-26T04:04:10.855Z,3800.00
2019-06-26T04:05:10.838Z,3892.00
2019-06-26T04:06:10.858Z,3976.00
2019-06-26T04:07:10.803Z,4064.00
2019-06-26T04:08:10.782Z,4148.00
2019-06-26T04:09:10.767Z,4244.00
2019-06-26T04:10:10.758Z,4328.00
2019-06-26T04:11:10.723Z,4412.00
2019-06-26T04:12:10.712Z,4500.00
2019-06-26T04:13:10.693Z,4588.00
2019-06-26T04:14:10.675Z,4676.00
2019-06-26T04:15:10.658Z,4760.00
2019-06-26T04:16:10.645Z,4856.00
2019-06-26T04:17:10.628Z,4940.00
2019-06-26T04:18:10.610Z,5032.00
2019-06-26T04:19:10.591Z,5124.00
2019-06-26T04:20:10.574Z,5208.00
2019-06-26T04:21:10.557Z,5300.00
2019-06-26T04:22:10.537Z,5384.00
2019-06-26T04:23:10.529Z,5468.00
2019-06-26T04:24:10.508Z,5552.00
2019-06-26T04:25:10.490Z,5640.00
2019-06-26T04:26:10.475Z,5720.00
2019-06-26T04:27:10.465Z,5796.00
2019-06-26T04:28:10.439Z,5880.00
2019-06-26T04:29:10.422Z,5956.00
2019-06-26T04:30:10.401Z,6036.00
2019-06-26T04:31:10.391Z,6116.00
2019-06-26T04:32:10.375Z,6192.00
2019-06-26T04:33:10.424Z,6268.00
2019-06-26T04:34:10.337Z,6356.00
2019-06-26T04:35:10.328Z,6440.00
2019-06-26T04:36:10.309Z,6528.00
2019-06-26T04:37:10.285Z,6620.00
2019-06-26T04:38:10.268Z,6708.00
2019-06-26T04:39:10.255Z,6796.00
2019-06-26T04:40:10.234Z,6888.00
2019-06-26T04:41:10.221Z,6972.00
2019-06-26T04:42:10.203Z,7056.00
2019-06-26T04:43:10.188Z,7136.00
2019-06-26T04:44:10.226Z,7220.00
2019-06-26T04:45:10.239Z,7300.00
2019-06-26T04:46:10.141Z,7376.00
2019-06-26T04:47:10.138Z,7456.00
2019-06-26T04:48:10.107Z,7532.00
2019-06-26T04:49:10.091Z,7604.00
2019-06-26T04:50:10.071Z,7676.00
2019-06-26T04:51:10.055Z,7752.00
2019-06-26T04:52:10.041Z,7840.00
2019-06-26T04:53:10.026Z,7912.00
2019-06-26T04:54:10.004Z,7976.00
2019-06-26T04:55:09.995Z,8044.00
2019-06-26T04:56:09.978Z,8108.00
2019-06-26T04:57:09.970Z,8164.00
2019-06-26T04:58:09.947Z,8212.00
2019-06-26T04:59:09.931Z,8248.00
2019-06-26T05:00:09.915Z,8300.00
2019-06-26T05:01:09.908Z,8364.00
2019-06-26T05:02:09.921Z,8428.00
2019-06-26T05:03:09.862Z,8480.00
2019-06-26T05:04:09.865Z,8524.00
2019-06-26T05:05:09.836Z,8568.00
2019-06-26T05:06:09.811Z,8620.00
2019-06-26T05:07:09.809Z,8676.00
2019-06-26T05:08:09.789Z,8720.00
2019-06-26T05:09:09.791Z,8792.00
2019-06-26T05:10:09.756Z,8848.00
2019-06-26T05:11:12.679Z,8932.00
2019-06-26T05:12:09.725Z,9012.00
2019-06-26T05:13:09.708Z,9024.00
2019-06-26T05:14:09.705Z,9144.00
2019-06-26T05:15:09.681Z,9216.00
2019-06-26T05:16:14.923Z,9280.00
2019-06-26T05:17:09.651Z,9356.00
2019-06-26T05:18:09.635Z,9420.00
2019-06-26T05:19:09.623Z,9484.00
2019-06-26T05:20:09.608Z,9548.00
2019-06-26T05:21:09.591Z,9612.00
2019-06-26T05:22:09.575Z,9668.00
2019-06-26T05:23:09.569Z,9744.00
2019-06-26T05:24:09.545Z,9792.00
2019-06-26T05:25:09.535Z,9916.00
2019-06-26T05:26:09.518Z,10032.00
2019-06-26T05:27:09.503Z,10116.00
2019-06-26T05:28:09.493Z,10204.00
2019-06-26T05:29:09.475Z,10292.00
2019-06-26T05:30:09.459Z,10368.00
2019-06-26T05:31:09.441Z,10436.00
2019-06-26T05:32:09.430Z,10508.00
2019-06-26T05:33:09.417Z,10588.00
2019-06-26T05:34:11.093Z,10672.00
2019-06-26T05:35:09.389Z,10760.00
2019-06-26T05:36:09.374Z,10844.00
2019-06-26T05:37:09.353Z,10932.00
2019-06-26T05:38:09.356Z,11032.00
2019-06-26T05:39:09.338Z,11132.00
2019-06-26T05:40:09.324Z,11084.00
2019-06-26T05:41:09.307Z,11192.00
2019-06-26T05:42:09.289Z,11296.00
2019-06-26T05:43:09.280Z,11392.00
2019-06-26T05:44:09.261Z,11500.00
2019-06-26T05:45:09.248Z,11640.00
2019-06-26T05:46:09.239Z,14696.00
2019-06-26T05:47:09.222Z,23744.00
2019-06-26T05:48:09.211Z,29120.00
2019-06-26T05:49:09.192Z,31264.00
2019-06-26T05:50:09.183Z,30752.00
2019-06-26T05:51:09.166Z,26784.00
2019-06-26T05:52:09.153Z,22528.00
2019-06-26T05:53:09.140Z,20928.00
2019-06-26T05:54:09.127Z,20768.00
2019-06-26T05:55:09.116Z,18496.00
2019-06-26T05:56:09.103Z,17824.00
2019-06-26T05:57:09.096Z,17344.00
2019-06-26T05:58:09.077Z,16864.00
2019-06-26T05:59:09.066Z,16800.00
2019-06-26T06:00:09.066Z,16768.00
2019-06-26T06:01:09.061Z,16832.00
2019-06-26T06:02:09.033Z,16768.00
2019-06-26T06:03:09.020Z,16672.00
2019-06-26T06:04:09.011Z,16800.00
2019-06-26T06:05:08.998Z,16832.00
2019-06-26T06:06:08.990Z,16992.00
2019-06-26T06:07:08.972Z,17056.00
2019-06-26T06:08:08.961Z,17088.00
2019-06-26T06:09:08.954Z,17024.00
2019-06-26T06:10:08.941Z,17152.00
2019-06-26T06:11:08.929Z,17312.00
2019-06-26T06:12:08.922Z,17568.00
2019-06-26T06:13:08.910Z,17728.00
2019-06-26T06:14:08.914Z,17856.00
2019-06-26T06:15:08.895Z,17952.00
2019-06-26T06:16:08.873Z,17920.00
2019-06-26T06:17:08.869Z,17856.00
2019-06-26T06:18:08.856Z,17952.00
2019-06-26T06:19:08.848Z,17952.00
2019-06-26T06:20:08.836Z,18112.00
2019-06-26T06:21:08.832Z,18272.00
2019-06-26T06:22:08.824Z,18432.00
2019-06-26T06:23:08.809Z,18592.00
2019-06-26T06:24:08.798Z,18752.00
2019-06-26T06:25:08.796Z,18784.00
2019-06-26T06:26:08.776Z,18880.00
2019-06-26T06:27:08.770Z,19040.00
2019-06-26T06:28:08.764Z,19296.00
2019-06-26T06:29:08.759Z,19488.00
2019-06-26T06:30:08.767Z,19712.00
2019-06-26T06:31:08.733Z,19872.00
2019-06-26T06:32:08.787Z,20096.00
2019-06-26T06:33:08.715Z,20224.00
2019-06-26T06:34:08.702Z,20384.00
2019-06-26T06:35:08.697Z,20576.00
2019-06-26T06:36:09.716Z,20800.00
2019-06-26T06:37:08.682Z,20960.00
2019-06-26T06:38:08.665Z,21152.00
2019-06-26T06:39:08.655Z,21312.00
2019-06-26T06:40:08.653Z,21504.00
2019-06-26T06:41:08.637Z,21696.00
2019-06-26T06:42:08.635Z,21856.00
2019-06-26T06:43:08.630Z,22016.00
2019-06-26T06:44:08.621Z,22272.00
2019-06-26T06:45:08.606Z,22368.00
2019-06-26T06:46:08.605Z,22528.00
2019-06-26T06:47:09.126Z,22496.00
2019-06-26T06:48:08.598Z,22528.00
2019-06-26T06:49:08.577Z,22784.00
2019-06-26T06:50:08.561Z,22976.00
2019-06-26T06:51:08.550Z,23520.00
2019-06-26T06:52:08.549Z,24352.00
2019-06-26T06:53:08.539Z,26720.00
2019-06-26T06:54:08.561Z,32352.00
2019-06-26T06:55:08.523Z,40672.00
2019-06-26T06:56:08.591Z,48896.00
2019-06-26T06:57:08.500Z,52256.00
2019-06-26T06:58:08.497Z,53824.00
2019-06-26T06:59:08.498Z,55904.00
2019-06-26T07:00:08.485Z,57792.00
2019-06-26T07:01:08.541Z,60352.00
2019-06-26T07:02:08.466Z,58944.00
2019-06-26T07:03:08.463Z,58176.00
2019-06-26T07:04:08.453Z,60992.00
2019-06-26T07:05:08.446Z,60288.00
2019-06-26T07:06:08.440Z,58720.00
2019-06-26T07:07:08.425Z,61408.00
2019-06-26T07:08:08.424Z,65280.00
2019-06-26T07:09:08.460Z,64864.00
2019-06-26T07:10:08.405Z,63200.00
2019-06-26T07:11:08.401Z,64832.00
2019-06-26T07:12:08.392Z,67456.00
2019-06-26T07:13:08.379Z,68704.00
2019-06-26T07:14:08.372Z,66208.00
2019-06-26T07:15:08.367Z,63872.00
2019-06-26T07:16:08.363Z,64000.00
2019-06-26T07:17:19.847Z,65056.00
2019-06-26T07:18:08.348Z,64800.00
2019-06-26T07:19:08.345Z,63648.00
2019-06-26T07:20:08.332Z,66624.00
2019-06-26T07:21:08.327Z,72320.00
2019-06-26T07:22:08.320Z,72992.00
2019-06-26T07:23:08.313Z,69600.00
2019-06-26T07:24:08.311Z,68864.00
2019-06-26T07:25:08.296Z,72704.00
2019-06-26T07:26:08.294Z,72928.00
2019-06-26T07:27:08.282Z,68960.00
2019-06-26T07:28:08.305Z,68000.00
2019-06-26T07:29:08.273Z,74432.00
2019-06-26T07:30:08.264Z,77504.00
2019-06-26T07:31:08.252Z,76192.00
2019-06-26T07:32:08.251Z,74848.00
2019-06-26T07:33:08.249Z,76768.00
2019-06-26T07:34:08.235Z,76672.00
2019-06-26T07:35:08.283Z,75360.00
2019-06-26T07:36:08.247Z,76160.00
2019-06-26T07:37:08.223Z,78272.00
2019-06-26T07:38:08.219Z,79584.00
2019-06-26T07:39:08.207Z,80480.00
2019-06-26T07:40:08.199Z,80320.00
2019-06-26T07:41:08.191Z,80896.00
2019-06-26T07:42:08.192Z,80608.00
2019-06-26T07:43:08.183Z,79232.00
2019-06-26T07:44:08.174Z,79360.00
2019-06-26T07:45:08.162Z,81888.00
2019-06-26T07:46:08.174Z,83168.00
2019-06-26T07:47:21.948Z,80992.00
2019-06-26T07:48:08.155Z,77664.00
2019-06-26T07:49:08.149Z,76608.00
2019-06-26T07:50:08.146Z,78624.00
2019-06-26T07:51:08.152Z,82752.00
2019-06-26T07:52:08.129Z,86240.00
2019-06-26T07:53:08.127Z,87712.00
2019-06-26T07:54:08.127Z,84064.00
2019-06-26T07:55:11.586Z,78048.00
2019-06-26T07:56:08.108Z,78432.00
2019-06-26T07:57:08.105Z,87264.00
2019-06-26T07:58:08.097Z,95584.00
2019-06-26T07:59:08.091Z,96096.00
2019-06-26T08:00:08.177Z,92224.00
2019-06-26T08:01:08.085Z,89568.00
2019-06-26T08:02:08.075Z,87488.00
2019-06-26T08:03:08.069Z,84064.00
2019-06-26T08:04:08.103Z,81984.00
2019-06-26T08:05:08.061Z,83776.00
2019-06-26T08:06:08.071Z,87232.00
2019-06-26T08:07:08.059Z,90880.00
2019-06-26T08:08:08.047Z,93792.00
2019-06-26T08:09:08.043Z,96448.00
2019-06-26T08:10:08.037Z,97600.00
2019-06-26T08:11:08.033Z,95680.00
2019-06-26T08:12:08.028Z,90176.00
2019-06-26T08:13:08.031Z,86304.00
2019-06-26T08:14:08.019Z,88544.00
2019-06-26T08:15:08.013Z,91424.00
2019-06-26T08:16:08.009Z,90656.00
2019-06-26T08:17:08.003Z,87456.00
2019-06-26T08:18:07.997Z,87136.00
2019-06-26T08:19:07.996Z,89440.00
2019-06-26T08:20:07.990Z,89856.00
2019-06-26T08:21:12.537Z,90304.00
2019-06-26T08:22:07.981Z,91520.00
2019-06-26T08:23:07.974Z,93280.00
2019-06-26T08:24:07.974Z,93664.00
2019-06-26T08:25:07.965Z,94080.00
2019-06-26T08:26:07.962Z,92800.00
2019-06-26T08:27:07.959Z,87072.00
2019-06-26T08:28:07.950Z,85888.00
2019-06-26T08:29:07.953Z,90752.00
2019-06-26T08:30:08.013Z,96576.00
2019-06-26T08:31:07.947Z,101184.00
2019-06-26T08:32:07.936Z,99296.00
2019-06-26T08:33:07.959Z,95328.00
2019-06-26T08:34:07.930Z,94112.00
2019-06-26T08:35:07.944Z,100320.00
2019-06-26T08:36:07.923Z,106432.00
2019-06-26T08:37:07.923Z,108448.00
2019-06-26T08:38:11.293Z,106176.00
2019-06-26T08:39:07.907Z,102176.00
2019-06-26T08:40:07.907Z,100416.00
2019-06-26T08:41:07.901Z,100928.00
2019-06-26T08:42:07.895Z,99680.00
2019-06-26T08:43:07.894Z,97376.00
2019-06-26T08:44:07.893Z,95392.00
2019-06-26T08:45:07.887Z,95872.00
2019-06-26T08:46:07.884Z,99072.00
2019-06-26T08:47:07.873Z,101984.00
2019-06-26T08:48:22.614Z,103168.00
2019-06-26T08:49:21.091Z,101856.00
2019-06-26T08:50:07.867Z,102272.00
2019-06-26T08:51:07.856Z,103488.00
2019-06-26T08:52:07.863Z,104704.00
2019-06-26T08:53:07.905Z,102336.00
2019-06-26T08:54:07.859Z,99424.00
2019-06-26T08:55:07.856Z,94944.00
2019-06-26T08:56:07.845Z,92224.00
2019-06-26T08:57:07.837Z,91040.00
2019-06-26T08:58:07.835Z,90560.00
2019-06-26T08:59:07.831Z,89856.00
2019-06-26T09:00:07.830Z,89632.00
2019-06-26T09:01:07.829Z,91712.00
2019-06-26T09:02:07.821Z,96640.00
2019-06-26T09:03:07.812Z,99424.00
2019-06-26T09:04:07.814Z,102432.00
2019-06-26T09:05:07.810Z,105632.00
2019-06-26T09:06:07.804Z,107840.00
2019-06-26T09:07:07.803Z,108864.00
2019-06-26T09:08:07.902Z,107328.00
2019-06-26T09:09:07.794Z,101824.00
2019-06-26T09:10:07.807Z,95904.00
2019-06-26T09:11:07.782Z,92256.00
2019-06-26T09:12:07.784Z,92224.00
2019-06-26T09:13:07.779Z,96032.00
2019-06-26T09:14:07.780Z,101344.00
2019-06-26T09:15:07.776Z,106272.00
2019-06-26T09:16:07.776Z,105792.00
2019-06-26T09:17:07.766Z,100864.00
2019-06-26T09:18:07.771Z,96544.00
2019-06-26T09:19:07.756Z,93632.00
2019-06-26T09:20:07.760Z,93824.00
2019-06-26T09:21:07.755Z,96064.00
2019-06-26T09:22:07.765Z,101664.00
2019-06-26T09:23:07.749Z,104480.00
2019-06-26T09:24:07.749Z,105984.00
2019-06-26T09:25:21.011Z,105056.00
2019-06-26T09:26:07.743Z,103808.00
2019-06-26T09:27:07.738Z,104960.00
2019-06-26T09:28:07.745Z,107808.00
2019-06-26T09:29:07.728Z,110144.00
2019-06-26T09:30:07.758Z,110592.00
2019-06-26T09:31:07.731Z,112352.00
2019-06-26T09:32:07.729Z,111808.00
2019-06-26T09:33:07.740Z,108032.00
2019-06-26T09:34:07.721Z,105728.00
2019-06-26T09:35:07.765Z,105376.00
2019-06-26T09:36:07.716Z,105696.00
2019-06-26T09:37:07.717Z,103904.00
2019-06-26T09:38:07.728Z,103264.00
2019-06-26T09:39:07.708Z,105600.00
2019-06-26T09:40:07.717Z,109536.00
2019-06-26T09:41:07.703Z,113152.00
2019-06-26T09:42:07.701Z,115904.00
2019-06-26T09:43:07.699Z,116192.00
2019-06-26T09:44:07.773Z,115008.00
2019-06-26T09:45:07.701Z,113024.00
2019-06-26T09:46:07.687Z,110432.00
2019-06-26T09:47:07.693Z,108128.00
2019-06-26T09:48:07.701Z,105152.00
2019-06-26T09:49:07.678Z,101536.00
2019-06-26T09:50:07.741Z,100320.00
2019-06-26T09:51:07.676Z,102848.00
2019-06-26T09:52:07.668Z,108128.00
2019-06-26T09:53:07.681Z,114848.00
2019-06-26T09:54:07.668Z,116896.00
2019-06-26T09:55:07.661Z,111936.00
2019-06-26T09:56:07.666Z,105216.00
2019-06-26T09:57:07.689Z,103584.00
2019-06-26T09:58:07.655Z,104160.00
2019-06-26T09:59:07.656Z,107648.00
2019-06-26T10:00:07.656Z,114624.00
2019-06-26T10:01:07.684Z,121952.00
2019-06-26T10:02:07.652Z,124224.00
2019-06-26T10:03:07.666Z,121888.00
2019-06-26T10:04:07.642Z,119488.00
2019-06-26T10:05:07.639Z,118144.00
2019-06-26T10:06:07.642Z,116576.00
2019-06-26T10:07:07.644Z,113824.00
2019-06-26T10:08:07.699Z,110816.00
2019-06-26T10:09:07.634Z,112160.00
2019-06-26T10:10:07.632Z,113664.00
2019-06-26T10:11:07.636Z,117984.00
2019-06-26T10:12:07.638Z,122944.00
2019-06-26T10:13:07.627Z,124480.00
2019-06-26T10:14:07.623Z,125696.00
2019-06-26T10:15:07.621Z,124736.00
2019-06-26T10:16:07.624Z,127520.00
2019-06-26T10:17:07.615Z,131936.00
2019-06-26T10:18:07.620Z,133728.00
2019-06-26T10:19:10.673Z,134400.00
2019-06-26T10:20:07.633Z,131104.00
2019-06-26T10:21:07.618Z,121888.00
2019-06-26T10:22:07.607Z,112544.00
2019-06-26T10:23:07.609Z,106176.00
2019-06-26T10:24:07.602Z,103776.00
2019-06-26T10:25:11.128Z,107360.00
2019-06-26T10:26:07.616Z,114912.00
2019-06-26T10:27:07.602Z,124416.00
2019-06-26T10:28:07.606Z,132608.00
2019-06-26T10:29:07.609Z,138688.00
2019-06-26T10:30:07.599Z,139104.00
2019-06-26T10:31:07.601Z,136896.00
2019-06-26T10:32:07.590Z,134976.00
2019-06-26T10:33:07.592Z,132960.00
2019-06-26T10:34:10.005Z,129152.00
2019-06-26T10:35:07.587Z,122176.00
2019-06-26T10:36:07.589Z,116864.00
2019-06-26T10:37:07.582Z,114464.00
2019-06-26T10:38:07.583Z,113952.00
2019-06-26T10:39:07.582Z,115296.00
2019-06-26T10:40:07.583Z,120448.00
2019-06-26T10:41:07.579Z,128416.00
2019-06-26T10:42:07.597Z,131232.00
2019-06-26T10:43:07.588Z,130400.00
2019-06-26T10:44:07.572Z,128256.00
2019-06-26T10:45:07.572Z,125952.00
2019-06-26T10:46:07.573Z,124960.00
2019-06-26T10:47:07.568Z,120544.00
2019-06-26T10:48:07.572Z,113664.00
2019-06-26T10:49:07.581Z,109760.00
2019-06-26T10:50:07.580Z,109472.00
2019-06-26T10:51:07.599Z,111392.00
2019-06-26T10:52:07.570Z,111040.00
2019-06-26T10:53:07.557Z,112640.00
2019-06-26T10:54:07.565Z,118176.00
2019-06-26T10:55:07.558Z,118944.00
2019-06-26T10:56:07.561Z,117504.00
2019-06-26T10:57:07.550Z,114432.00
2019-06-26T10:58:07.552Z,113696.00
2019-06-26T10:59:07.559Z,112416.00
2019-06-26T11:00:07.551Z,112832.00
2019-06-26T11:01:07.553Z,110400.00
2019-06-26T11:02:07.552Z,107680.00
2019-06-26T11:03:07.559Z,105312.00
2019-06-26T11:04:07.551Z,105504.00
2019-06-26T11:05:07.561Z,108448.00
2019-06-26T11:06:07.546Z,111520.00
2019-06-26T11:07:07.550Z,113536.00
2019-06-26T11:08:07.542Z,120800.00
2019-06-26T11:09:07.535Z,123840.00
2019-06-26T11:10:07.544Z,121888.00
2019-06-26T11:11:07.536Z,119296.00
2019-06-26T11:12:07.537Z,119616.00
2019-06-26T11:13:07.529Z,117728.00
2019-06-26T11:14:07.532Z,118208.00
2019-06-26T11:15:07.531Z,118560.00
2019-06-26T11:16:07.544Z,119200.00
2019-06-26T11:17:07.526Z,120288.00
2019-06-26T11:18:07.530Z,119872.00
2019-06-26T11:19:07.525Z,121344.00
2019-06-26T11:20:07.593Z,122368.00
2019-06-26T11:21:07.530Z,122080.00
2019-06-26T11:22:07.521Z,120480.00
2019-06-26T11:23:07.524Z,115840.00
2019-06-26T11:24:07.527Z,109152.00
2019-06-26T11:25:07.520Z,103648.00
2019-06-26T11:26:07.525Z,102368.00
2019-06-26T11:27:07.514Z,104864.00
2019-06-26T11:28:07.509Z,110432.00
2019-06-26T11:29:07.520Z,116192.00
2019-06-26T11:30:07.514Z,120640.00
2019-06-26T11:31:07.545Z,120640.00
2019-06-26T11:32:09.528Z,119584.00
2019-06-26T11:33:07.509Z,118848.00
2019-06-26T11:34:07.508Z,120544.00
2019-06-26T11:35:07.515Z,122336.00
2019-06-26T11:37:07.646Z,113920.00
2019-06-26T11:38:07.654Z,112800.00
2019-06-26T11:39:07.666Z,115360.00
2019-06-26T11:40:07.639Z,118368.00
2019-06-26T11:41:07.625Z,117664.00
2019-06-26T11:42:07.646Z,115392.00
2019-06-26T11:43:28.648Z,114016.00
2019-06-26T11:44:07.639Z,113408.00
2019-06-26T11:45:07.626Z,112416.00
2019-06-26T11:46:07.617Z,111328.00
2019-06-26T11:47:07.644Z,112384.00
2019-06-26T11:48:07.620Z,113568.00
2019-06-26T11:49:28.647Z,113792.00
2019-06-26T11:50:07.642Z,112768.00
2019-06-26T11:51:07.617Z,111136.00
2019-06-26T11:52:07.636Z,110048.00
2019-06-26T11:53:07.620Z,110432.00
2019-06-26T11:54:07.611Z,113504.00
2019-06-26T11:55:28.618Z,115680.00
2019-06-26T11:56:07.606Z,116224.00
2019-06-26T11:57:07.611Z,115968.00
2019-06-26T11:58:07.623Z,111680.00
2019-06-26T11:59:07.598Z,107840.00
2019-06-26T12:00:07.599Z,105632.00
2019-06-26T12:01:28.612Z,104992.00
2019-06-26T12:02:07.614Z,104544.00
2019-06-26T12:03:07.601Z,104160.00
2019-06-26T12:04:07.982Z,104672.00
2019-06-26T12:05:07.629Z,107168.00